createdAt,value
2023-04-02T00:00:17.611Z,5.20
2023-04-02T00:03:01.304Z,5.63
2023-04-02T00:05:51.254Z,5.37
2023-04-02T00:08:22.469Z,4.93
2023-04-02T00:10:52.785Z,4.60
2023-04-02T00:13:26.668Z,5.30
2023-04-02T00:15:58.311Z,5.17
2023-04-02T00:18:27.486Z,5.13
2023-04-02T00:21:01.624Z,5.10
2023-04-02T00:23:29.743Z,5.17
2023-04-02T00:25:57.477Z,5.00
2023-04-02T00:28:27.523Z,5.20
2023-04-02T00:30:59.337Z,4.70
2023-04-02T00:33:31.471Z,4.80
2023-04-02T00:35:59.592Z,4.97
2023-04-02T00:38:30.491Z,4.80
2023-04-02T00:41:02.611Z,5.13
2023-04-02T00:43:34.889Z,5.07
2023-04-02T00:46:10.818Z,4.87
2023-04-02T00:48:45.414Z,4.40
2023-04-02T00:51:18.637Z,4.83
2023-04-02T00:53:48.994Z,4.67
2023-04-02T00:56:23.122Z,5.03
2023-04-02T00:58:55.749Z,4.97
2023-04-02T01:01:26.006Z,4.60
2023-04-02T01:03:58.084Z,4.40
2023-04-02T01:06:30.901Z,4.57
2023-04-02T01:09:08.425Z,5.00
2023-04-02T01:12:02.118Z,4.57
2023-04-02T01:14:53.203Z,4.60
2023-04-02T01:17:33.773Z,4.40
2023-04-02T01:20:35.136Z,4.80
2023-04-02T01:23:08.258Z,4.70
2023-04-02T01:25:42.511Z,4.40
2023-04-02T01:28:19.566Z,3.87
2023-04-02T01:30:53.011Z,4.00
2023-04-02T01:33:23.510Z,4.00
2023-04-02T01:35:56.331Z,3.70
2023-04-02T01:38:29.199Z,4.17
2023-04-02T01:41:04.892Z,4.03
2023-04-02T01:43:38.238Z,3.90
2023-04-02T01:46:29.452Z,3.70
2023-04-02T01:48:58.156Z,3.70
2023-04-02T01:51:31.152Z,3.30
2023-04-02T01:54:01.622Z,3.93
2023-04-02T01:56:30.971Z,3.77
2023-04-02T01:58:59.586Z,3.80
2023-04-02T02:01:34.188Z,3.20
2023-04-02T02:04:03.198Z,3.90
2023-04-02T02:06:31.349Z,3.50
2023-04-02T02:09:03.498Z,3.70
2023-04-02T02:11:33.861Z,3.70
2023-04-02T02:14:03.926Z,4.23
2023-04-02T02:16:41.694Z,4.23
2023-04-02T02:19:20.706Z,4.00
2023-04-02T02:21:52.049Z,4.13
2023-04-02T02:24:23.521Z,4.67
2023-04-02T02:26:57.951Z,4.00
2023-04-02T02:29:27.967Z,4.13
2023-04-02T02:31:59.143Z,3.70
2023-04-02T02:34:37.552Z,3.23
2023-04-02T02:37:12.551Z,3.27
2023-04-02T02:39:43.145Z,3.40
2023-04-02T02:42:15.750Z,3.30
2023-04-02T02:44:47.807Z,3.40
2023-04-02T02:47:19.832Z,3.30
2023-04-02T02:49:52.182Z,3.50
2023-04-02T02:52:22.545Z,3.37
2023-04-02T02:54:53.006Z,3.53
2023-04-02T02:57:24.039Z,3.00
2023-04-02T02:59:52.777Z,3.20
2023-04-02T03:02:22.216Z,3.70
2023-04-02T03:04:53.130Z,3.30
2023-04-02T03:07:25.538Z,3.27
2023-04-02T03:09:58.505Z,3.40
2023-04-02T03:12:37.473Z,3.20
2023-04-02T03:15:13.290Z,3.30
2023-04-02T03:17:46.854Z,3.40
2023-04-02T03:20:18.985Z,3.00
2023-04-02T03:22:54.404Z,3.83
2023-04-02T03:25:34.096Z,3.30
2023-04-02T03:28:04.898Z,3.40
2023-04-02T03:30:39.807Z,3.37
2023-04-02T03:33:14.776Z,3.53
2023-04-02T03:35:48.656Z,2.97
2023-04-02T03:38:21.770Z,2.80
2023-04-02T03:41:01.536Z,2.80
2023-04-02T03:43:34.368Z,2.90
2023-04-02T03:46:12.872Z,2.87
2023-04-02T03:48:46.773Z,3.13
2023-04-02T03:51:20.224Z,2.83
2023-04-02T03:53:48.898Z,2.73
2023-04-02T03:56:27.589Z,2.50
2023-04-02T03:59:04.072Z,2.60
2023-04-02T04:01:37.319Z,3.00
2023-04-02T04:04:11.239Z,3.03
2023-04-02T04:06:43.606Z,3.47
2023-04-02T04:09:17.232Z,2.70
2023-04-02T04:11:48.374Z,3.07
2023-04-02T04:14:19.329Z,2.70
2023-04-02T04:16:53.832Z,2.70
2023-04-02T04:19:32.624Z,2.73
2023-04-02T04:22:11.357Z,3.20
2023-04-02T04:24:39.797Z,2.80
2023-04-02T04:27:13.707Z,2.60
2023-04-02T04:29:50.287Z,2.40
2023-04-02T04:32:27.456Z,2.37
2023-04-02T04:35:02.853Z,2.30
2023-04-02T04:37:35.461Z,2.70
2023-04-02T04:40:12.244Z,2.50
2023-04-02T04:42:42.959Z,2.20
2023-04-02T04:45:23.665Z,2.30
2023-04-02T04:47:55.493Z,2.90
2023-04-02T04:50:31.726Z,2.50
2023-04-02T04:53:06.611Z,2.43
2023-04-02T04:55:39.347Z,2.20
2023-04-02T04:58:19.030Z,2.67
2023-04-02T05:01:01.548Z,2.47
2023-04-02T05:03:35.321Z,2.43
2023-04-02T05:06:12.465Z,2.63
2023-04-02T05:08:45.046Z,2.60
2023-04-02T05:11:21.006Z,2.57
2023-04-02T05:13:53.502Z,2.33
2023-04-02T05:16:27.430Z,2.77
2023-04-02T05:19:04.778Z,2.70
2023-04-02T05:21:42.264Z,2.27
2023-04-02T05:24:37.526Z,2.50
2023-04-02T05:27:14.588Z,2.00
2023-04-02T05:29:45.211Z,2.03
2023-04-02T05:32:18.114Z,2.13
2023-04-02T05:34:49.398Z,1.67
2023-04-02T05:37:21.714Z,1.80
2023-04-02T05:39:53.297Z,1.60
2023-04-02T05:42:24.670Z,1.97
2023-04-02T05:45:04.210Z,1.50
2023-04-02T05:47:34.340Z,1.80
2023-04-02T05:50:18.497Z,1.73
2023-04-02T05:52:52.712Z,1.93
2023-04-02T05:55:32.091Z,1.80
2023-04-02T05:58:29.385Z,2.37
2023-04-02T06:01:07.622Z,2.00
2023-04-02T06:03:46.351Z,2.30
2023-04-02T06:06:20.216Z,1.93
2023-04-02T06:08:56.576Z,2.30
2023-04-02T06:11:31.071Z,2.27
2023-04-02T06:13:59.207Z,1.83
2023-04-02T06:16:30.224Z,1.87
2023-04-02T06:18:58.766Z,2.47
2023-04-02T06:21:27.235Z,2.20
2023-04-02T06:23:59.031Z,1.80
2023-04-02T06:26:32.511Z,1.87
2023-04-02T06:29:05.690Z,2.00
2023-04-02T06:31:39.389Z,1.67
2023-04-02T06:34:13.623Z,2.03
2023-04-02T06:36:42.113Z,1.70
2023-04-02T06:39:18.762Z,2.30
2023-04-02T06:41:46.663Z,1.80
2023-04-02T06:44:18.304Z,1.80
2023-04-02T06:46:51.752Z,1.67
2023-04-02T06:49:26.068Z,1.90
2023-04-02T06:51:56.274Z,1.70
2023-04-02T06:54:25.493Z,1.97
2023-04-02T06:56:56.232Z,2.13
2023-04-02T06:59:24.498Z,1.60
2023-04-02T07:01:55.912Z,1.60
2023-04-02T07:04:24.567Z,1.90
2023-04-02T07:06:53.413Z,1.83
2023-04-02T07:09:21.315Z,1.67
2023-04-02T07:11:50.487Z,2.23
2023-04-02T07:14:18.218Z,1.73
2023-04-02T07:16:46.011Z,1.80
2023-04-02T07:19:19.873Z,2.00
2023-04-02T07:21:47.997Z,2.07
2023-04-02T07:24:15.897Z,1.70
2023-04-02T07:26:43.744Z,1.73
2023-04-02T07:29:16.723Z,1.70
2023-04-02T07:31:44.822Z,2.20
2023-04-02T07:34:12.661Z,1.90
2023-04-02T07:36:40.415Z,1.97
2023-04-02T07:39:08.163Z,1.83
2023-04-02T07:41:52.033Z,1.70
2023-04-02T07:44:21.134Z,1.80
2023-04-02T07:46:48.847Z,1.90
2023-04-02T07:49:16.750Z,1.80
2023-04-02T07:51:44.468Z,1.70
2023-04-02T07:54:13.021Z,1.90
2023-04-02T07:56:40.918Z,2.80
2023-04-02T07:59:08.668Z,1.70
2023-04-02T08:01:37.808Z,1.80
2023-04-02T08:04:07.775Z,1.90
2023-04-02T08:06:35.539Z,1.67
2023-04-02T08:09:03.358Z,1.80
2023-04-02T08:11:31.981Z,1.87
2023-04-02T08:13:59.772Z,1.50
2023-04-02T08:16:27.865Z,1.70
2023-04-02T08:18:57.168Z,1.73
2023-04-02T08:21:25.392Z,1.70
2023-04-02T08:23:53.142Z,1.50
2023-04-02T08:26:20.992Z,1.87
2023-04-02T08:28:48.706Z,1.73
2023-04-02T08:31:17.316Z,1.63
2023-04-02T08:33:45.240Z,1.70
2023-04-02T08:36:17.394Z,1.70
2023-04-02T08:38:45.431Z,1.40
2023-04-02T08:41:21.580Z,2.00
2023-04-02T08:44:05.389Z,1.60
2023-04-02T08:46:40.886Z,1.57
2023-04-02T08:49:14.942Z,1.40
2023-04-02T08:51:44.996Z,1.70
2023-04-02T08:54:18.519Z,1.47
2023-04-02T08:56:51.501Z,1.63
2023-04-02T08:59:25.579Z,1.30
2023-04-02T09:02:00.757Z,1.50
2023-04-02T09:04:29.300Z,1.40
2023-04-02T09:07:00.631Z,1.70
2023-04-02T09:09:28.910Z,1.57
2023-04-02T09:12:00.825Z,1.80
2023-04-02T09:14:40.891Z,1.60
2023-04-02T09:17:18.498Z,1.73
2023-04-02T09:19:57.383Z,1.80
2023-04-02T09:22:29.022Z,1.27
2023-04-02T09:24:58.604Z,1.40
2023-04-02T09:27:28.576Z,1.47
2023-04-02T09:30:00.823Z,1.50
2023-04-02T09:32:40.853Z,1.80
2023-04-02T09:35:24.794Z,1.40
2023-04-02T09:38:19.935Z,1.70
2023-04-02T09:40:51.402Z,1.53
2023-04-02T09:43:21.306Z,1.83
2023-04-02T09:45:58.767Z,1.83
2023-04-02T09:48:30.390Z,1.80
2023-04-02T09:51:13.232Z,2.10
2023-04-02T09:53:43.480Z,1.77
2023-04-02T09:56:14.753Z,1.90
2023-04-02T09:58:45.083Z,2.00
2023-04-02T10:01:32.038Z,1.83
2023-04-02T10:04:00.932Z,1.80
2023-04-02T10:06:30.991Z,2.03
2023-04-02T10:09:19.389Z,1.90
2023-04-02T10:11:47.823Z,1.77
2023-04-02T10:14:22.242Z,1.73
2023-04-02T10:16:52.876Z,1.70
2023-04-02T10:19:28.578Z,1.83
2023-04-02T10:21:57.329Z,2.30
2023-04-02T10:24:29.394Z,1.83
2023-04-02T10:27:06.668Z,1.80
2023-04-02T10:29:58.232Z,2.00
2023-04-02T10:32:31.443Z,1.60
2023-04-02T10:35:03.730Z,1.50
2023-04-02T10:37:54.877Z,1.77
2023-04-02T10:40:29.092Z,1.60
2023-04-02T10:43:15.361Z,1.60
2023-04-02T10:45:50.882Z,1.60
2023-04-02T10:48:29.753Z,1.60
2023-04-02T10:51:02.192Z,1.80
2023-04-02T10:53:38.740Z,1.53
2023-04-02T10:56:13.118Z,1.53
2023-04-02T10:58:49.421Z,1.30
2023-04-02T11:01:21.472Z,1.67
2023-04-02T11:03:57.874Z,1.60
2023-04-02T11:06:29.488Z,1.60
2023-04-02T11:09:01.568Z,1.43
2023-04-02T11:11:34.898Z,1.90
2023-04-02T11:14:06.279Z,1.57
2023-04-02T11:16:36.138Z,1.63
2023-04-02T11:19:21.329Z,1.50
2023-04-02T11:21:58.774Z,1.70
2023-04-02T11:24:37.923Z,1.70
2023-04-02T11:27:15.858Z,1.60
2023-04-02T11:29:46.348Z,1.57
2023-04-02T11:32:47.303Z,1.50
2023-04-02T11:35:37.837Z,1.80
2023-04-02T11:38:49.677Z,1.70
2023-04-02T11:41:51.550Z,1.80
2023-04-02T11:44:26.818Z,1.60
2023-04-02T11:47:18.394Z,1.80
2023-04-02T11:50:02.630Z,1.63
2023-04-02T11:52:34.255Z,1.83
2023-04-02T11:55:06.602Z,1.77
2023-04-02T11:58:02.737Z,1.60
2023-04-02T12:00:56.197Z,1.40
2023-04-02T12:03:49.184Z,1.80
2023-04-02T12:06:28.819Z,1.87
2023-04-02T12:09:07.922Z,2.13
2023-04-02T12:11:38.570Z,1.90
2023-04-02T12:14:24.124Z,1.83
2023-04-02T12:16:53.611Z,2.20
2023-04-02T12:19:21.818Z,1.97
2023-04-02T12:21:49.933Z,2.00
2023-04-02T12:24:22.018Z,2.10
2023-04-02T12:26:49.986Z,1.70
2023-04-02T12:29:23.706Z,2.23
2023-04-02T12:31:53.908Z,2.13
2023-04-02T12:34:23.683Z,1.93
2023-04-02T12:36:53.949Z,2.03
2023-04-02T12:39:22.353Z,1.93
2023-04-02T12:41:50.102Z,2.03
2023-04-02T12:44:20.073Z,2.00
2023-04-02T12:46:48.888Z,2.10
2023-04-02T12:49:29.778Z,2.23
2023-04-02T12:51:58.437Z,2.00
2023-04-02T12:54:27.036Z,2.10
2023-04-02T12:56:56.667Z,2.10
2023-04-02T12:59:33.651Z,1.77
2023-04-02T13:02:02.716Z,2.10
2023-04-02T13:04:31.860Z,1.83
2023-04-02T13:07:00.509Z,2.10
2023-04-02T13:09:32.211Z,1.77
2023-04-02T13:12:00.375Z,1.90
2023-04-02T13:14:29.077Z,2.00
2023-04-02T13:16:57.172Z,2.60
2023-04-02T13:19:33.277Z,1.90
2023-04-02T13:22:02.777Z,2.13
2023-04-02T13:24:32.065Z,2.20
2023-04-02T13:27:01.613Z,2.03
2023-04-02T13:29:31.068Z,2.03
2023-04-02T13:32:01.501Z,1.97
2023-04-02T13:34:29.846Z,2.00
2023-04-02T13:36:59.353Z,1.93
2023-04-02T13:39:27.576Z,1.80
2023-04-02T13:41:58.416Z,1.90
2023-04-02T13:44:28.117Z,2.20
2023-04-02T13:46:57.141Z,1.83
2023-04-02T13:49:26.236Z,1.60
2023-04-02T13:51:57.829Z,2.00
2023-04-02T13:54:31.305Z,2.03
2023-04-02T13:56:59.267Z,2.00
2023-04-02T13:59:27.703Z,1.90
2023-04-02T14:01:58.737Z,2.10
2023-04-02T14:04:29.151Z,1.40
2023-04-02T14:07:17.185Z,1.73
2023-04-02T14:09:56.752Z,1.70
2023-04-02T14:12:36.599Z,1.90
2023-04-02T14:15:19.006Z,1.63
2023-04-02T14:17:57.096Z,1.83
2023-04-02T14:20:37.510Z,1.77
2023-04-02T14:23:18.047Z,1.60
2023-04-02T14:25:53.529Z,1.50
2023-04-02T14:28:29.931Z,1.50
2023-04-02T14:31:03.784Z,1.77
2023-04-02T14:33:42.400Z,1.50
2023-04-02T14:36:17.067Z,1.40
2023-04-02T14:38:55.534Z,1.50
2023-04-02T14:41:31.268Z,1.77
2023-04-02T14:44:02.069Z,1.47
2023-04-02T14:46:34.786Z,1.33
2023-04-02T14:49:16.671Z,1.67
2023-04-02T14:51:49.978Z,1.80
2023-04-02T14:54:26.054Z,1.87
2023-04-02T14:56:57.996Z,2.73
2023-04-02T14:59:31.729Z,2.40
2023-04-02T15:02:04.036Z,3.53
2023-04-02T15:04:35.775Z,2.43
2023-04-02T15:07:08.775Z,2.17
2023-04-02T15:09:43.050Z,1.77
2023-04-02T15:12:21.305Z,1.70
2023-04-02T15:14:53.921Z,1.80
2023-04-02T15:17:21.762Z,2.17
2023-04-02T15:19:51.128Z,1.57
2023-04-02T15:22:32.815Z,2.10
2023-04-02T15:25:12.870Z,1.83
2023-04-02T15:28:01.193Z,2.10
2023-04-02T15:30:31.865Z,1.90
2023-04-02T15:33:35.399Z,2.00
2023-04-02T15:36:21.435Z,1.67
2023-04-02T15:38:55.461Z,1.87
2023-04-02T15:41:27.592Z,1.50
2023-04-02T15:44:04.202Z,1.77
2023-04-02T15:46:43.854Z,1.70
2023-04-02T15:49:24.601Z,1.50
2023-04-02T15:52:02.697Z,1.70
2023-04-02T15:54:47.163Z,1.40
2023-04-02T15:57:25.587Z,1.57
2023-04-02T16:00:04.356Z,1.50
2023-04-02T16:02:52.470Z,1.33
2023-04-02T16:05:32.311Z,1.30
2023-04-02T16:08:15.759Z,1.47
2023-04-02T16:10:45.100Z,1.40
2023-04-02T16:13:18.859Z,1.50
2023-04-02T16:15:53.346Z,1.30
2023-04-02T16:18:31.258Z,1.40
2023-04-02T16:21:03.795Z,1.30
2023-04-02T16:23:36.148Z,1.40
2023-04-02T16:26:17.041Z,1.60
2023-04-02T16:28:52.138Z,1.50
2023-04-02T16:31:27.730Z,1.60
2023-04-02T16:34:05.298Z,1.40
2023-04-02T16:36:44.308Z,1.50
2023-04-02T16:39:26.710Z,1.40
2023-04-02T16:42:06.315Z,2.07
2023-04-02T16:44:50.361Z,1.70
2023-04-02T16:47:28.447Z,1.37
2023-04-02T16:50:03.034Z,1.53
2023-04-02T16:52:41.882Z,1.57
2023-04-02T16:55:24.318Z,1.70
2023-04-02T16:58:03.878Z,1.50
2023-04-02T17:00:39.459Z,1.67
2023-04-02T17:03:26.681Z,1.33
2023-04-02T17:06:02.803Z,1.40
2023-04-02T17:08:38.749Z,1.43
2023-04-02T17:11:08.787Z,1.40
2023-04-02T17:13:41.811Z,1.37
2023-04-02T17:16:18.425Z,1.57
2023-04-02T17:18:49.415Z,1.73
2023-04-02T17:21:21.624Z,1.40
2023-04-02T17:23:56.399Z,1.73
2023-04-02T17:26:28.226Z,1.40
2023-04-02T17:28:58.081Z,1.40
2023-04-02T17:31:27.812Z,1.53
2023-04-02T17:33:57.499Z,1.53
2023-04-02T17:36:35.735Z,1.60
2023-04-02T17:39:15.798Z,1.73
2023-04-02T17:41:50.371Z,1.70
2023-04-02T17:44:30.368Z,1.80
2023-04-02T17:47:06.345Z,1.70
2023-04-02T17:49:41.356Z,1.90
2023-04-02T17:52:19.906Z,1.60
2023-04-02T17:55:02.490Z,1.93
2023-04-02T17:57:42.475Z,1.70
2023-04-02T18:00:23.657Z,1.93
2023-04-02T18:03:10.283Z,1.80
2023-04-02T18:05:45.682Z,1.80
2023-04-02T18:08:25.502Z,1.70
2023-04-02T18:11:05.878Z,1.67
2023-04-02T18:13:36.621Z,1.60
2023-04-02T18:16:18.173Z,1.70
2023-04-02T18:18:57.931Z,1.57
2023-04-02T18:21:32.264Z,1.60
2023-04-02T18:24:26.859Z,1.47
2023-04-02T18:27:03.964Z,1.70
2023-04-02T18:29:41.117Z,2.10
2023-04-02T18:32:35.402Z,1.97
2023-04-02T18:35:14.084Z,1.80
2023-04-02T18:38:01.601Z,1.70
2023-04-02T18:40:41.071Z,1.77
2023-04-02T18:43:19.847Z,2.03
2023-04-02T18:45:57.088Z,1.57
2023-04-02T18:48:40.806Z,1.87
2023-04-02T18:51:14.852Z,1.50
2023-04-02T18:53:45.275Z,1.87
2023-04-02T18:56:17.092Z,1.70
2023-04-02T18:58:53.091Z,2.17
2023-04-02T19:01:28.255Z,1.70
2023-04-02T19:04:01.694Z,1.47
2023-04-02T19:06:36.641Z,2.53
2023-04-02T19:09:11.943Z,2.10
2023-04-02T19:11:39.689Z,1.77
2023-04-02T19:14:13.278Z,2.10
2023-04-02T19:17:01.429Z,2.47
2023-04-02T19:19:31.744Z,2.43
2023-04-02T19:22:22.743Z,2.57
2023-04-02T19:25:24.258Z,1.73
2023-04-02T19:28:13.202Z,1.60
2023-04-02T19:31:19.939Z,2.10
2023-04-02T19:33:53.103Z,2.33
2023-04-02T19:36:36.511Z,1.80
2023-04-02T19:39:27.614Z,1.97
2023-04-02T19:42:03.975Z,1.80
2023-04-02T19:44:31.709Z,1.90
2023-04-02T19:46:59.615Z,2.00
2023-04-02T19:49:30.367Z,1.87
2023-04-02T19:51:58.260Z,2.40
2023-04-02T19:54:26.130Z,1.83
2023-04-02T19:56:54.054Z,1.80
2023-04-02T19:59:23.278Z,2.00
2023-04-02T20:01:51.124Z,1.80
2023-04-02T20:04:18.922Z,2.07
2023-04-02T20:06:46.826Z,2.50
2023-04-02T20:09:14.577Z,2.07
2023-04-02T20:11:42.422Z,1.90
2023-04-02T20:14:10.262Z,2.03
2023-04-02T20:16:39.385Z,1.70
2023-04-02T20:19:07.212Z,2.03
2023-04-02T20:21:38.308Z,1.80
2023-04-02T20:24:07.028Z,1.80
2023-04-02T20:26:36.165Z,2.00
2023-04-02T20:29:04.519Z,2.30
2023-04-02T20:31:32.443Z,2.00
2023-04-02T20:34:02.545Z,2.00
2023-04-02T20:36:30.444Z,2.03
2023-04-02T20:38:58.657Z,1.90
2023-04-02T20:41:26.578Z,2.27
2023-04-02T20:43:54.409Z,2.00
2023-04-02T20:46:22.470Z,2.00
2023-04-02T20:48:50.215Z,1.97
2023-04-02T20:51:19.339Z,2.10
2023-04-02T20:53:47.725Z,2.00
2023-04-02T20:56:17.745Z,1.90
2023-04-02T20:58:46.085Z,2.10
2023-04-02T21:01:18.840Z,2.40
2023-04-02T21:03:46.914Z,2.37
2023-04-02T21:06:15.816Z,1.93
2023-04-02T21:08:45.444Z,2.23
2023-04-02T21:11:13.579Z,1.93
2023-04-02T21:13:43.767Z,2.17
2023-04-02T21:16:16.101Z,2.30
2023-04-02T21:18:44.441Z,2.00
2023-04-02T21:21:13.822Z,1.80
2023-04-02T21:23:42.824Z,2.10
2023-04-02T21:26:14.594Z,2.00
2023-04-02T21:28:42.763Z,2.20
2023-04-02T21:31:12.604Z,1.90
2023-04-02T21:33:42.416Z,2.23
2023-04-02T21:36:13.273Z,2.10
2023-04-02T21:38:43.199Z,1.93
2023-04-02T21:41:14.436Z,1.90
2023-04-02T21:43:42.474Z,2.20
2023-04-02T21:46:10.364Z,1.70
2023-04-02T21:48:38.382Z,2.00
2023-04-02T21:51:11.359Z,2.03
2023-04-02T21:53:39.837Z,1.90
2023-04-02T21:56:09.834Z,2.40
2023-04-02T21:58:39.365Z,2.27
2023-04-02T22:01:14.079Z,2.30
2023-04-02T22:03:49.379Z,2.10
2023-04-02T22:06:19.745Z,2.00
2023-04-02T22:08:49.480Z,2.27
2023-04-02T22:11:18.972Z,2.33
2023-04-02T22:13:49.145Z,2.10
2023-04-02T22:16:19.565Z,2.00
2023-04-02T22:18:47.815Z,1.90
2023-04-02T22:21:16.619Z,2.03
2023-04-02T22:23:44.823Z,1.80
2023-04-02T22:26:13.805Z,1.80
2023-04-02T22:28:41.550Z,2.00
2023-04-02T22:31:13.563Z,1.93
2023-04-02T22:33:42.323Z,2.37
2023-04-02T22:36:10.460Z,2.43
2023-04-02T22:38:38.609Z,2.27
2023-04-02T22:41:09.042Z,1.90
2023-04-02T22:43:37.463Z,2.00
2023-04-02T22:46:06.247Z,2.30
2023-04-02T22:48:36.120Z,1.83
2023-04-02T22:51:03.988Z,1.80
2023-04-02T22:53:31.705Z,1.97
2023-04-02T22:56:03.179Z,2.13
2023-04-02T22:58:30.909Z,2.40
2023-04-02T23:01:05.156Z,2.10
2023-04-02T23:03:32.961Z,2.17
2023-04-02T23:06:04.244Z,2.13
2023-04-02T23:08:31.969Z,2.17
2023-04-02T23:11:04.505Z,2.00
2023-04-02T23:13:33.000Z,2.00
2023-04-02T23:16:02.184Z,2.17
2023-04-02T23:18:30.303Z,1.90
2023-04-02T23:20:58.014Z,1.80
2023-04-02T23:23:27.308Z,2.23
2023-04-02T23:26:04.519Z,2.17
2023-04-02T23:28:32.252Z,2.10
2023-04-02T23:31:00.174Z,2.10
2023-04-02T23:33:27.890Z,1.90
2023-04-02T23:35:55.665Z,2.20
2023-04-02T23:38:23.466Z,2.17
2023-04-02T23:40:52.691Z,2.10
2023-04-02T23:43:20.456Z,2.10
2023-04-02T23:45:49.105Z,2.00
2023-04-02T23:48:17.579Z,1.57
2023-04-02T23:50:46.431Z,1.90
2023-04-02T23:53:16.395Z,2.00
2023-04-02T23:55:44.128Z,2.00
2023-04-02T23:58:13.154Z,2.10
